createdAt,value
2019-02-15T00:02:46.211Z,4.5
2019-02-15T00:07:42.803Z,4.5
2019-02-15T00:12:38.740Z,4.5
2019-02-15T00:17:35.232Z,4.6
2019-02-15T00:22:31.617Z,4.6
2019-02-15T00:27:27.993Z,4.6
2019-02-15T00:32:23.875Z,4.6
2019-02-15T00:37:20.280Z,4.1
2019-02-15T00:42:16.692Z,4.6
2019-02-15T00:47:13.118Z,4.6
2019-02-15T00:52:09.354Z,4.4
2019-02-15T00:57:05.765Z,4.4
2019-02-15T01:02:02.255Z,4.4
2019-02-15T01:06:58.492Z,4.4
2019-02-15T01:11:54.812Z,4.4
2019-02-15T01:16:51.257Z,4.5
2019-02-15T01:21:47.649Z,4.5
2019-02-15T01:26:44.158Z,4.5
2019-02-15T01:31:40.766Z,4.5
2019-02-15T01:36:37.319Z,4.5
2019-02-15T01:41:33.542Z,4.1
2019-02-15T01:46:29.938Z,4.4
2019-02-15T01:51:26.476Z,4.4
2019-02-15T01:56:23.005Z,4.4
2019-02-15T02:01:19.208Z,4.3
2019-02-15T02:06:15.660Z,4.3
2019-02-15T02:11:12.139Z,4.3
2019-02-15T02:16:08.494Z,4.4
2019-02-15T02:21:04.692Z,4.4
2019-02-15T02:26:01.279Z,4.3
2019-02-15T02:30:57.611Z,4.3
2019-02-15T02:35:53.934Z,4.2
2019-02-15T02:40:50.380Z,4.2
2019-02-15T02:45:46.853Z,4.2
2019-02-15T02:50:43.327Z,4.2
2019-02-15T02:55:39.661Z,4.2
2019-02-15T03:00:36.030Z,4.3
2019-02-15T03:05:32.447Z,4.3
2019-02-15T03:10:29.061Z,4.2
2019-02-15T03:15:25.591Z,4.2
2019-02-15T03:20:30.733Z,4.1
2019-02-15T03:25:18.823Z,4.1
2019-02-15T03:30:15.267Z,4.1
2019-02-15T03:35:11.703Z,4.1
2019-02-15T03:40:07.807Z,4.1
2019-02-15T03:45:04.362Z,4.2
2019-02-15T03:50:00.891Z,3.7
2019-02-15T03:54:57.330Z,4.2
2019-02-15T03:59:54.118Z,4.1
2019-02-15T04:04:50.457Z,4.1
2019-02-15T04:09:46.942Z,4.1
2019-02-15T04:14:43.254Z,4.2
2019-02-15T04:19:39.491Z,4.2
2019-02-15T04:24:36.095Z,4.1
2019-02-15T04:29:32.620Z,4.1
2019-02-15T04:34:29.003Z,4.1
2019-02-15T04:39:25.361Z,4
2019-02-15T04:44:21.891Z,4.1
2019-02-15T04:49:18.341Z,4.1
2019-02-15T04:54:14.820Z,4.1
2019-02-15T04:59:11.158Z,4.1
2019-02-15T05:04:07.819Z,4.1
2019-02-15T05:09:04.054Z,3.7
2019-02-15T05:14:00.318Z,4.2
2019-02-15T05:18:56.584Z,4.3
2019-02-15T05:23:52.982Z,4.3
2019-02-15T05:28:49.339Z,4.3
2019-02-15T05:33:45.685Z,4.3
2019-02-15T05:38:41.748Z,4.3
2019-02-15T05:43:37.824Z,4.3
2019-02-15T05:48:33.789Z,4.3
2019-02-15T05:53:30.434Z,4.3
2019-02-15T05:58:26.723Z,4.3
2019-02-15T06:03:23.016Z,4.3
2019-02-15T06:08:18.945Z,4.3
2019-02-15T06:13:15.358Z,4.3
2019-02-15T06:18:12.197Z,4.3
2019-02-15T06:23:08.547Z,4.3
2019-02-15T06:28:04.596Z,4.4
2019-02-15T06:33:00.999Z,4.3
2019-02-15T06:37:57.222Z,4.2
2019-02-15T06:42:53.477Z,4.2
2019-02-15T06:47:49.459Z,4.3
2019-02-15T06:52:45.962Z,4.3
2019-02-15T06:57:42.329Z,4.5
2019-02-15T07:02:39.033Z,4.5
2019-02-15T07:07:35.475Z,4.4
2019-02-15T07:12:32.020Z,4.6
2019-02-15T07:17:28.114Z,4.5
2019-02-15T07:22:24.767Z,4.6
2019-02-15T07:27:20.914Z,4.7
2019-02-15T07:32:17.361Z,4.7
2019-02-15T07:37:13.587Z,4.7
2019-02-15T07:42:09.904Z,4.6
2019-02-15T07:47:06.016Z,4.7
2019-02-15T07:52:02.505Z,4.6
2019-02-15T07:56:58.951Z,4.6
2019-02-15T08:02:01.558Z,4.8
2019-02-15T08:06:51.799Z,4.8
2019-02-15T08:11:48.290Z,4.9
2019-02-15T08:16:44.506Z,4.8
2019-02-15T08:21:41.069Z,4.9
2019-02-15T08:26:37.804Z,4.5
2019-02-15T08:31:34.018Z,4.9
2019-02-15T08:36:30.417Z,4.9
2019-02-15T08:41:27.159Z,4.9
2019-02-15T08:46:23.730Z,5
2019-02-15T08:51:19.884Z,5.1
2019-02-15T08:56:16.342Z,5.1
2019-02-15T09:01:12.636Z,5.1
2019-02-15T09:06:09.149Z,5.2
2019-02-15T09:11:05.807Z,5
2019-02-15T09:20:58.990Z,5.2
2019-02-15T09:25:54.754Z,4.8
2019-02-15T09:30:51.322Z,5.3
2019-02-15T09:35:47.727Z,5.3
2019-02-15T09:40:44.309Z,5.3
2019-02-15T09:45:40.540Z,5.3
2019-02-15T09:50:37.031Z,5.3
2019-02-15T09:55:33.794Z,5.5
2019-02-15T10:00:30.076Z,5.6
2019-02-15T10:05:26.610Z,5.7
2019-02-15T10:10:23.086Z,5.8
2019-02-15T10:15:19.743Z,5.9
2019-02-15T10:20:16.229Z,6
2019-02-15T10:25:12.619Z,5.9
2019-02-15T10:30:09.143Z,6
2019-02-15T10:35:05.384Z,5.9
2019-02-15T10:40:02.141Z,5.9
2019-02-15T10:44:58.236Z,5.8
2019-02-15T10:49:54.321Z,5.7
2019-02-15T10:54:50.256Z,5.7
2019-02-15T10:59:46.686Z,5.7
2019-02-15T11:04:43.062Z,5.5
2019-02-15T11:09:39.638Z,5.5
2019-02-15T11:14:35.924Z,5.5
2019-02-15T11:19:32.257Z,5.5
2019-02-15T11:24:28.488Z,5.5
2019-02-15T11:29:25.022Z,5.3
2019-02-15T11:34:20.994Z,5.4
2019-02-15T11:39:17.470Z,5.4
2019-02-15T11:44:13.608Z,5.4
2019-02-15T11:49:10.301Z,5.4
2019-02-15T11:54:06.435Z,5.4
2019-02-15T11:59:02.990Z,5.4
2019-02-15T12:03:58.925Z,5.4
2019-02-15T12:08:55.420Z,4.7
2019-02-15T12:13:52.123Z,5.4
2019-02-15T12:18:48.529Z,5.3
2019-02-15T12:23:45.048Z,5.3
2019-02-15T12:28:41.529Z,5.3
2019-02-15T12:33:37.832Z,5.3
2019-02-15T12:38:33.225Z,5.2
2019-02-15T12:43:29.767Z,5.3
2019-02-15T12:48:26.298Z,5.3
2019-02-15T12:53:22.868Z,5.3
2019-02-15T12:58:19.235Z,5.3
2019-02-15T13:03:15.507Z,5.3
2019-02-15T13:08:12.408Z,5.4
2019-02-15T13:13:09.330Z,5.4
2019-02-15T13:18:09.253Z,5.5
2019-02-15T13:23:05.582Z,5.5
2019-02-15T13:28:02.211Z,5.5
2019-02-15T13:32:58.865Z,5.4
2019-02-15T13:37:55.353Z,5.2
2019-02-15T13:42:51.657Z,5
2019-02-15T13:47:48.325Z,4.9
2019-02-15T13:52:44.679Z,4.8
2019-02-15T13:57:41.319Z,4.8
2019-02-15T14:02:37.873Z,4.8
2019-02-15T14:07:34.437Z,4.9
2019-02-15T14:12:30.851Z,4.9
2019-02-15T14:17:27.110Z,4.9
2019-02-15T14:22:23.806Z,4.8
2019-02-15T14:27:19.870Z,4.8
2019-02-15T14:32:16.280Z,4.9
2019-02-15T14:37:12.746Z,4.9
2019-02-15T14:42:09.327Z,5
2019-02-15T14:47:05.779Z,4.9
2019-02-15T14:52:01.925Z,4.8
2019-02-15T14:56:58.073Z,4.9
2019-02-15T15:01:54.358Z,4.8
2019-02-15T15:06:50.812Z,4.9
2019-02-15T15:11:47.190Z,4.9
2019-02-15T15:16:43.624Z,4.9
2019-02-15T15:21:40.278Z,4.9
2019-02-15T15:26:36.754Z,4.9
2019-02-15T15:31:33.097Z,4.8
2019-02-15T15:36:29.743Z,4.7
2019-02-15T15:41:25.994Z,4.8
2019-02-15T15:46:22.542Z,4.8
2019-02-15T15:51:18.951Z,4.7
2019-02-15T15:56:15.477Z,4.7
2019-02-15T16:01:11.742Z,4.7
2019-02-15T16:06:08.337Z,4.7
2019-02-15T16:11:04.029Z,4.6
2019-02-15T16:16:00.538Z,4.7
2019-02-15T16:20:56.567Z,4.6
2019-02-15T16:25:53.210Z,4.7
2019-02-15T16:30:49.654Z,4.6
2019-02-15T16:35:46.657Z,4.5
2019-02-15T16:40:43.145Z,4.6
2019-02-15T16:45:39.210Z,4.6
2019-02-15T16:50:35.286Z,4.7
2019-02-15T16:55:31.799Z,4.7
2019-02-15T17:00:27.023Z,4.6
2019-02-15T17:05:23.514Z,4.7
2019-02-15T17:10:19.862Z,4.6
2019-02-15T17:15:16.252Z,4.6
2019-02-15T17:20:12.153Z,4.6
2019-02-15T17:25:08.718Z,4.5
2019-02-15T17:30:05.035Z,4.5
2019-02-15T17:35:01.489Z,4.5
2019-02-15T17:39:57.824Z,4.5
2019-02-15T17:44:54.251Z,4.6
2019-02-15T17:49:50.451Z,4.6
2019-02-15T17:54:46.332Z,4.6
2019-02-15T17:59:42.897Z,4.6
2019-02-15T18:04:39.140Z,4.6
2019-02-15T18:09:35.496Z,4.6
2019-02-15T18:14:31.787Z,4.5
2019-02-15T18:19:27.895Z,4.5
2019-02-15T18:24:24.662Z,4.5
2019-02-15T18:29:21.027Z,4.5
2019-02-15T18:34:17.583Z,4.6
2019-02-15T18:39:14.034Z,4.6
2019-02-15T18:44:10.523Z,4.6
2019-02-15T18:49:06.908Z,4.6
2019-02-15T18:54:03.450Z,4.6
2019-02-15T18:58:59.891Z,4.6
2019-02-15T19:03:56.640Z,4.6
2019-02-15T19:08:53.111Z,4.6
2019-02-15T19:13:49.411Z,4.5
2019-02-15T19:18:45.629Z,4.6
2019-02-15T19:23:42.363Z,4.6
2019-02-15T19:28:38.931Z,4.5
2019-02-15T19:33:35.408Z,4.5
2019-02-15T19:38:31.853Z,4.6
2019-02-15T19:43:28.436Z,4.7
2019-02-15T19:48:24.804Z,4.7
2019-02-15T19:53:21.366Z,4.7
2019-02-15T19:58:17.400Z,4.7
2019-02-15T20:08:11.056Z,4.7
2019-02-15T20:13:07.008Z,4.6
2019-02-15T20:18:03.475Z,4.6
2019-02-15T20:22:59.807Z,4.6
2019-02-15T20:27:56.347Z,4.6
2019-02-15T20:32:52.953Z,4.6
2019-02-15T20:37:49.390Z,4.5
2019-02-15T20:42:46.121Z,4.5
2019-02-15T20:47:42.535Z,4.5
2019-02-15T20:52:39.042Z,4.5
2019-02-15T20:57:35.161Z,4.6
2019-02-15T21:02:31.835Z,4.6
2019-02-15T21:07:28.246Z,4.6
2019-02-15T21:12:24.502Z,4.6
2019-02-15T21:17:20.690Z,4.6
2019-02-15T21:22:17.003Z,4.5
2019-02-15T21:27:12.855Z,4.5
2019-02-15T21:32:09.510Z,4.5
2019-02-15T21:37:06.071Z,4.5
2019-02-15T21:42:02.702Z,4.5
2019-02-15T21:46:59.135Z,4
2019-02-15T21:51:55.576Z,4.5
2019-02-15T21:56:51.972Z,4.6
2019-02-15T22:01:48.563Z,4.5
2019-02-15T22:06:44.882Z,4.5
2019-02-15T22:11:41.354Z,4.5
2019-02-15T22:16:37.383Z,4.5
2019-02-15T22:21:33.613Z,4.2
2019-02-15T22:26:30.277Z,4.5
2019-02-15T22:31:26.874Z,4.5
2019-02-15T22:36:23.071Z,4.6
2019-02-15T22:41:19.508Z,-0.7
2019-02-15T22:46:15.803Z,4.5
2019-02-15T22:51:12.331Z,4.4
2019-02-15T22:56:08.535Z,4.3
2019-02-15T23:01:05.246Z,4.3
2019-02-15T23:06:02.060Z,4.4
2019-02-15T23:10:58.478Z,4.3
2019-02-15T23:15:54.803Z,4.3
2019-02-15T23:20:51.257Z,4.3
2019-02-15T23:25:47.609Z,4.3
2019-02-15T23:30:44.197Z,4.3
2019-02-15T23:35:40.687Z,4.3
2019-02-15T23:40:37.288Z,4.4
2019-02-15T23:45:33.846Z,4.4
2019-02-15T23:50:30.416Z,4.4
2019-02-15T23:55:26.402Z,4.4
